Time;durP1;ratioP1;P1;durP2;ratioP2;P2;SDS_P1;SDS_P2;PMS_P1;PMS_P2;Temp;Humidity;BMP_temperature;BMP_pressure;BME280_temperature;BME280_humidity;BME280_pressure;Samples;Min_cycle;Max_cycle;Signal;HPM_P1;HPM_P2
2023/07/25 00:01:13;;;;;;;4.60;3.05;;;;;;;;;;4963084;28;20210;-72
2023/07/25 00:03:39;;;;;;;9.57;4.32;;;;;;;;;;4980861;28;20649;-72
2023/07/25 00:06:04;;;;;;;10.85;4.78;;;;;;;;;;4996015;23;21029;-67
2023/07/25 00:08:30;;;;;;;7.50;4.85;;;;;;;;;;4984656;28;20190;-68
2023/07/25 00:10:55;;;;;;;4.60;3.20;;;;;;;;;;4987642;28;20265;-67
2023/07/25 00:13:20;;;;;;;8.27;4.20;;;;;;;;;;4986912;28;20215;-68
2023/07/25 00:15:45;;;;;;;6.38;4.05;;;;;;;;;;4981406;28;20199;-67
2023/07/25 00:18:11;;;;;;;6.63;4.30;;;;;;;;;;4975480;28;20926;-68
2023/07/25 00:20:36;;;;;;;14.45;3.75;;;;;;;;;;4977192;28;20191;-68
2023/07/25 00:23:01;;;;;;;8.35;4.20;;;;;;;;;;4975101;28;20246;-68
2023/07/25 00:25:26;;;;;;;7.05;3.72;;;;;;;;;;4975344;28;20223;-68
2023/07/25 00:27:51;;;;;;;6.68;3.53;;;;;;;;;;4976879;28;20192;-68
2023/07/25 00:30:17;;;;;;;12.32;5.13;;;;;;;;;;4967647;28;20214;-68
2023/07/25 00:32:42;;;;;;;7.97;4.25;;;;;;;;;;4968700;28;20188;-67
2023/07/25 00:35:07;;;;;;;5.85;4.32;;;;;;;;;;4966668;28;20298;-68
2023/07/25 00:37:33;;;;;;;8.43;3.83;;;;;;;;;;4968185;28;20198;-68
2023/07/25 00:39:58;;;;;;;11.07;4.95;;;;;;;;;;4966438;28;20208;-67
2023/07/25 00:42:24;;;;;;;7.82;4.13;;;;;;;;;;4967571;28;20189;-67
2023/07/25 00:44:49;;;;;;;9.73;4.55;;;;;;;;;;4969826;28;20266;-68
2023/07/25 00:47:14;;;;;;;7.80;4.13;;;;;;;;;;4964512;28;20200;-68
2023/07/25 00:49:41;;;;;;;8.02;3.97;;;;;;;;;;4973201;28;20203;-68
2023/07/25 00:52:07;;;;;;;5.80;4.00;;;;;;;;;;4978644;28;20768;-68
2023/07/25 00:54:32;;;;;;;8.95;4.28;;;;;;;;;;4978966;28;20211;-69
2023/07/25 00:56:57;;;;;;;7.85;3.85;;;;;;;;;;4979488;28;20183;-68
2023/07/25 00:59:23;;;;;;;5.65;3.47;;;;;;;;;;4978534;28;20188;-68
2023/07/25 01:01:48;;;;;;;6.43;3.80;;;;;;;;;;4980027;28;20196;-68
2023/07/25 01:04:13;;;;;;;7.30;4.33;;;;;;;;;;4970704;28;20222;-68
2023/07/25 01:06:39;;;;;;;5.70;3.73;;;;;;;;;;4979832;28;20669;-68
2023/07/25 01:09:04;;;;;;;6.57;3.67;;;;;;;;;;4978340;28;20875;-69
2023/07/25 01:11:29;;;;;;;10.43;4.33;;;;;;;;;;4979257;28;20337;-68
2023/07/25 01:13:54;;;;;;;5.23;3.87;;;;;;;;;;4979211;28;20261;-68
2023/07/25 01:16:21;;;;;;;7.23;3.97;;;;;;;;;;4973437;28;20845;-68
2023/07/25 01:18:47;;;;;;;6.53;3.47;;;;;;;;;;4979309;28;20191;-68
2023/07/25 01:21:12;;;;;;;12.97;4.73;;;;;;;;;;4974058;28;20199;-69
2023/07/25 01:23:38;;;;;;;3.73;3.03;;;;;;;;;;4978022;28;20199;-68
2023/07/25 01:26:03;;;;;;;9.77;4.13;;;;;;;;;;4977172;28;20223;-68
2023/07/25 01:28:30;;;;;;;10.67;4.97;;;;;;;;;;4978602;28;20206;-68
2023/07/25 01:30:55;;;;;;;10.93;4.10;;;;;;;;;;4976729;28;20861;-68
2023/07/25 01:33:21;;;;;;;5.47;3.40;;;;;;;;;;4978534;28;20233;-68
2023/07/25 01:35:46;;;;;;;6.07;3.47;;;;;;;;;;4978616;28;20232;-68
2023/07/25 01:38:11;;;;;;;7.20;4.33;;;;;;;;;;4974013;28;20278;-68
2023/07/25 01:40:40;;;;;;;7.20;3.60;;;;;;;;;;4974299;28;20194;-66
2023/07/25 01:43:09;;;;;;;7.97;3.90;;;;;;;;;;4979695;28;21095;-69
2023/07/25 01:45:34;;;;;;;8.20;4.10;;;;;;;;;;4979436;28;20809;-68
2023/07/25 01:47:59;;;;;;;9.43;4.17;;;;;;;;;;4976821;28;20192;-67
2023/07/25 01:50:25;;;;;;;6.00;3.67;;;;;;;;;;4975590;28;20260;-68
2023/07/25 01:52:50;;;;;;;11.07;4.27;;;;;;;;;;4975183;28;20279;-69
2023/07/25 01:55:15;;;;;;;8.23;3.53;;;;;;;;;;4973671;28;20289;-69
2023/07/25 01:57:40;;;;;;;10.13;4.03;;;;;;;;;;4973148;28;20269;-68
2023/07/25 02:00:06;;;;;;;5.87;4.27;;;;;;;;;;4976779;28;20274;-68
2023/07/25 02:02:31;;;;;;;9.30;4.27;;;;;;;;;;4977513;28;20188;-68
2023/07/25 02:04:56;;;;;;;7.07;3.93;;;;;;;;;;4976886;28;20215;-68
2023/07/25 02:07:22;;;;;;;7.10;4.23;;;;;;;;;;4978808;28;20187;-67
2023/07/25 02:09:47;;;;;;;4.20;3.60;;;;;;;;;;4978368;28;20188;-67
2023/07/25 02:12:12;;;;;;;8.80;4.43;;;;;;;;;;4978269;28;20192;-68
2023/07/25 02:14:37;;;;;;;10.67;4.00;;;;;;;;;;4978134;28;20207;-68
2023/07/25 02:17:02;;;;;;;8.30;3.73;;;;;;;;;;4980310;28;20742;-68
2023/07/25 02:19:28;;;;;;;9.73;4.67;;;;;;;;;;4977486;28;20930;-67
2023/07/25 02:21:53;;;;;;;9.77;4.10;;;;;;;;;;4977555;28;20657;-68
2023/07/25 02:24:18;;;;;;;7.67;3.90;;;;;;;;;;4975311;28;20225;-67
2023/07/25 02:26:43;;;;;;;8.07;3.77;;;;;;;;;;4975506;28;20621;-67
2023/07/25 02:29:09;;;;;;;5.47;3.17;;;;;;;;;;4974011;28;20607;-67
2023/07/25 02:31:34;;;;;;;6.33;3.63;;;;;;;;;;4970416;28;20617;-68
2023/07/25 02:34:00;;;;;;;9.33;3.60;;;;;;;;;;4968118;28;20212;-66
2023/07/25 02:36:26;;;;;;;7.30;3.63;;;;;;;;;;4969581;28;20221;-68
2023/07/25 02:38:51;;;;;;;8.37;4.03;;;;;;;;;;4970218;28;20183;-68
2023/07/25 02:41:16;;;;;;;6.80;4.27;;;;;;;;;;4970133;28;20183;-68
2023/07/25 02:43:41;;;;;;;7.13;3.83;;;;;;;;;;4969399;28;20183;-68
2023/07/25 02:46:07;;;;;;;6.13;3.70;;;;;;;;;;4969927;28;20211;-68
2023/07/25 02:48:32;;;;;;;9.68;3.88;;;;;;;;;;4968611;28;20231;-68
2023/07/25 02:50:57;;;;;;;7.43;3.90;;;;;;;;;;4970602;28;20214;-68
2023/07/25 02:53:22;;;;;;;11.83;4.73;;;;;;;;;;4968261;28;20400;-68
2023/07/25 02:55:47;;;;;;;5.43;3.70;;;;;;;;;;4969251;28;20685;-68
2023/07/25 02:58:13;;;;;;;8.03;4.97;;;;;;;;;;4970494;28;20897;-68
2023/07/25 03:00:38;;;;;;;6.10;4.20;;;;;;;;;;4978633;28;20726;-68
2023/07/25 03:03:03;;;;;;;12.10;5.17;;;;;;;;;;4976134;28;21142;-69
2023/07/25 03:05:28;;;;;;;12.97;4.47;;;;;;;;;;4975633;28;20223;-69
2023/07/25 03:07:54;;;;;;;8.33;4.23;;;;;;;;;;4976676;28;20183;-69
2023/07/25 03:10:20;;;;;;;6.67;4.30;;;;;;;;;;4971114;28;20210;-69
2023/07/25 03:12:45;;;;;;;7.20;3.55;;;;;;;;;;4976826;28;20675;-68
2023/07/25 03:15:10;;;;;;;8.77;4.57;;;;;;;;;;4975150;28;20258;-68
2023/07/25 03:17:35;;;;;;;11.30;3.93;;;;;;;;;;4977848;28;20180;-68
2023/07/25 03:20:00;;;;;;;9.53;3.47;;;;;;;;;;4976531;28;20199;-67
2023/07/25 03:22:26;;;;;;;10.30;4.65;;;;;;;;;;4975860;28;20199;-67
2023/07/25 03:24:51;;;;;;;7.35;4.47;;;;;;;;;;4974133;28;20343;-66
2023/07/25 03:27:17;;;;;;;8.23;4.20;;;;;;;;;;4976039;28;20234;-68
2023/07/25 03:29:42;;;;;;;11.23;4.40;;;;;;;;;;4976188;28;20274;-67
2023/07/25 03:32:07;;;;;;;7.10;4.37;;;;;;;;;;4977454;28;20215;-68
2023/07/25 03:34:32;;;;;;;8.80;4.10;;;;;;;;;;4974381;28;20207;-68
2023/07/25 03:36:57;;;;;;;6.55;4.38;;;;;;;;;;4977105;28;20315;-69
2023/07/25 03:39:23;;;;;;;6.63;3.95;;;;;;;;;;4974185;28;20281;-68
2023/07/25 03:41:48;;;;;;;7.10;4.18;;;;;;;;;;4978408;28;20198;-68
2023/07/25 03:44:20;;;;;;;6.85;4.63;;;;;;;;;;4975020;28;20188;-68
2023/07/25 03:46:45;;;;;;;5.90;3.80;;;;;;;;;;4973709;28;20828;-68
2023/07/25 03:49:11;;;;;;;7.50;3.88;;;;;;;;;;4977609;28;20202;-68
2023/07/25 03:51:36;;;;;;;9.63;3.85;;;;;;;;;;4977112;28;20203;-68
2023/07/25 03:54:02;;;;;;;8.75;3.47;;;;;;;;;;4976909;28;20211;-67
2023/07/25 03:56:28;;;;;;;8.70;3.70;;;;;;;;;;4977300;28;20363;-68
2023/07/25 03:58:53;;;;;;;4.57;3.28;;;;;;;;;;4975964;28;20565;-68
2023/07/25 04:01:18;;;;;;;7.82;3.75;;;;;;;;;;4976123;28;20566;-68
2023/07/25 04:03:43;;;;;;;10.80;3.95;;;;;;;;;;4973576;28;20188;-68
2023/07/25 04:06:08;;;;;;;7.38;3.72;;;;;;;;;;4974446;28;20666;-68
2023/07/25 04:08:34;;;;;;;6.80;3.70;;;;;;;;;;4978478;28;20315;-68
2023/07/25 04:10:59;;;;;;;7.75;4.28;;;;;;;;;;4973589;28;20681;-68
2023/07/25 04:13:24;;;;;;;5.35;3.50;;;;;;;;;;4978271;28;20621;-68
2023/07/25 04:15:49;;;;;;;5.63;3.08;;;;;;;;;;4975301;28;20655;-68
2023/07/25 04:18:14;;;;;;;8.25;4.20;;;;;;;;;;4977328;28;20195;-68
2023/07/25 04:20:40;;;;;;;6.65;3.22;;;;;;;;;;4974972;28;20222;-68
2023/07/25 04:23:05;;;;;;;6.18;4.65;;;;;;;;;;4979078;28;20191;-68
2023/07/25 04:25:30;;;;;;;6.30;3.10;;;;;;;;;;4978807;28;20208;-68
2023/07/25 04:27:55;;;;;;;6.03;3.30;;;;;;;;;;4981155;28;20187;-68
2023/07/25 04:30:20;;;;;;;7.07;3.13;;;;;;;;;;4981372;28;20294;-68
2023/07/25 04:32:46;;;;;;;6.53;3.15;;;;;;;;;;4978688;28;20188;-67
2023/07/25 04:35:11;;;;;;;5.70;2.65;;;;;;;;;;4981068;28;20208;-68
2023/07/25 04:37:36;;;;;;;7.55;3.15;;;;;;;;;;4971395;28;20188;-68
2023/07/25 04:40:01;;;;;;;3.40;2.70;;;;;;;;;;4972769;28;20184;-68
2023/07/25 04:42:27;;;;;;;8.27;3.20;;;;;;;;;;4971877;28;20187;-68
2023/07/25 04:44:52;;;;;;;5.97;3.08;;;;;;;;;;4973098;28;20230;-68
2023/07/25 04:47:17;;;;;;;3.28;2.75;;;;;;;;;;4972495;28;20187;-68
2023/07/25 04:49:42;;;;;;;3.20;2.70;;;;;;;;;;4970071;28;20192;-67
2023/07/25 04:52:08;;;;;;;4.65;2.58;;;;;;;;;;4972177;28;20192;-67
2023/07/25 04:54:33;;;;;;;10.95;2.80;;;;;;;;;;4970824;28;20203;-67
2023/07/25 04:56:58;;;;;;;4.85;2.90;;;;;;;;;;4973346;28;20183;-67
2023/07/25 04:59:23;;;;;;;3.80;2.65;;;;;;;;;;4972493;28;20186;-67
2023/07/25 05:01:48;;;;;;;5.53;2.90;;;;;;;;;;4969919;28;20191;-67
2023/07/25 05:04:14;;;;;;;3.65;2.35;;;;;;;;;;4971945;28;20686;-67
2023/07/25 05:06:39;;;;;;;5.65;2.95;;;;;;;;;;4971039;28;20200;-67
2023/07/25 05:09:04;;;;;;;3.88;2.42;;;;;;;;;;4976183;28;20192;-68
2023/07/25 05:11:29;;;;;;;7.43;2.88;;;;;;;;;;4979158;28;20215;-69
2023/07/25 05:13:55;;;;;;;5.22;2.03;;;;;;;;;;4981185;28;20272;-68
2023/07/25 05:16:20;;;;;;;8.48;2.55;;;;;;;;;;4969940;28;20200;-68
2023/07/25 05:18:45;;;;;;;3.30;1.70;;;;;;;;;;4966026;28;20317;-68
2023/07/25 05:21:10;;;;;;;5.03;2.13;;;;;;;;;;4971386;28;20222;-67
2023/07/25 05:23:36;;;;;;;3.65;1.70;;;;;;;;;;4971036;28;20907;-67
2023/07/25 05:26:01;;;;;;;9.98;2.60;;;;;;;;;;4971891;28;20302;-68
2023/07/25 05:28:26;;;;;;;6.57;2.13;;;;;;;;;;4970923;28;20184;-67
2023/07/25 05:30:51;;;;;;;4.95;1.98;;;;;;;;;;4971270;28;20207;-68
2023/07/25 05:33:16;;;;;;;3.08;1.50;;;;;;;;;;4970962;28;20204;-67
2023/07/25 05:35:42;;;;;;;3.75;1.60;;;;;;;;;;4970057;28;20215;-68
2023/07/25 05:38:07;;;;;;;5.43;2.40;;;;;;;;;;4971804;28;20207;-67
2023/07/25 05:40:33;;;;;;;7.93;1.92;;;;;;;;;;4970675;28;20182;-67
2023/07/25 05:42:59;;;;;;;3.72;1.20;;;;;;;;;;4971906;28;20219;-67
2023/07/25 05:45:24;;;;;;;3.72;1.52;;;;;;;;;;4972392;28;20725;-67
2023/07/25 05:47:49;;;;;;;4.25;1.83;;;;;;;;;;4972508;28;20630;-67
2023/07/25 05:50:14;;;;;;;4.80;1.70;;;;;;;;;;4972689;28;20542;-67
2023/07/25 05:52:39;;;;;;;4.28;1.42;;;;;;;;;;4970503;28;20679;-67
2023/07/25 05:55:06;;;;;;;3.13;1.08;;;;;;;;;;4971045;28;20212;-68
2023/07/25 05:57:31;;;;;;;7.85;1.40;;;;;;;;;;4971416;28;20180;-67
2023/07/25 05:59:56;;;;;;;3.55;1.50;;;;;;;;;;4972331;28;20199;-67
2023/07/25 06:02:21;;;;;;;7.35;2.10;;;;;;;;;;4967806;28;20222;-67
2023/07/25 06:04:47;;;;;;;6.28;1.40;;;;;;;;;;4984364;23;20363;-71
2023/07/25 06:07:13;;;;;;;4.30;1.85;;;;;;;;;;4952880;28;20303;-71
2023/07/25 06:09:38;;;;;;;2.28;1.38;;;;;;;;;;4970452;28;20184;-71
2023/07/25 06:12:04;;;;;;;4.70;1.65;;;;;;;;;;4952803;28;20265;-72
2023/07/25 06:14:29;;;;;;;4.43;1.85;;;;;;;;;;4972918;28;20551;-72
2023/07/25 06:16:54;;;;;;;11.13;1.70;;;;;;;;;;4971021;28;20304;-73
2023/07/25 06:19:19;;;;;;;3.97;1.90;;;;;;;;;;4972053;28;20192;-73
2023/07/25 06:21:44;;;;;;;5.00;1.60;;;;;;;;;;4972256;28;20180;-73
2023/07/25 06:24:10;;;;;;;3.22;1.42;;;;;;;;;;4956569;28;20595;-73
2023/07/25 06:26:35;;;;;;;3.65;1.25;;;;;;;;;;4956031;28;20636;-73
2023/07/25 06:29:00;;;;;;;6.18;1.90;;;;;;;;;;4975511;28;20184;-72
2023/07/25 06:31:25;;;;;;;3.50;1.17;;;;;;;;;;4978138;28;20226;-72
2023/07/25 06:33:51;;;;;;;2.60;1.10;;;;;;;;;;4977496;28;20187;-72
2023/07/25 06:36:16;;;;;;;4.68;1.55;;;;;;;;;;4978992;28;20211;-73
2023/07/25 06:38:41;;;;;;;3.80;1.52;;;;;;;;;;4975937;28;21103;-72
2023/07/25 06:41:06;;;;;;;4.90;1.63;;;;;;;;;;4954132;28;20545;-72
2023/07/25 06:43:31;;;;;;;10.13;1.45;;;;;;;;;;4975597;28;20198;-72
2023/07/25 06:45:57;;;;;;;2.72;1.60;;;;;;;;;;4968095;28;20531;-72
2023/07/25 06:48:22;;;;;;;6.57;2.17;;;;;;;;;;4973426;28;20203;-77
2023/07/25 06:50:48;;;;;;;4.95;1.30;;;;;;;;;;4978260;28;20199;-73
2023/07/25 06:53:13;;;;;;;5.03;1.73;;;;;;;;;;4981245;28;20192;-72
2023/07/25 06:55:38;;;;;;;3.67;1.10;;;;;;;;;;4980631;28;20207;-72
2023/07/25 06:58:04;;;;;;;3.47;1.00;;;;;;;;;;4978972;28;20651;-72
2023/07/25 07:00:29;;;;;;;2.55;1.30;;;;;;;;;;4978422;28;20199;-72
2023/07/25 07:02:55;;;;;;;4.32;0.88;;;;;;;;;;4959538;28;20184;-72
2023/07/25 07:05:20;;;;;;;4.72;1.08;;;;;;;;;;4978296;28;20704;-73
2023/07/25 07:07:45;;;;;;;11.20;1.58;;;;;;;;;;4963375;28;20211;-73
2023/07/25 07:10:11;;;;;;;3.92;1.60;;;;;;;;;;4961277;28;20305;-73
2023/07/25 07:12:36;;;;;;;3.67;1.40;;;;;;;;;;4980571;28;20225;-72
2023/07/25 07:15:01;;;;;;;5.72;1.20;;;;;;;;;;4980769;28;20252;-71
2023/07/25 07:17:26;;;;;;;3.38;1.85;;;;;;;;;;4981860;28;20204;-72
2023/07/25 07:19:53;;;;;;;4.32;0.90;;;;;;;;;;4958630;28;20199;-72
2023/07/25 07:22:18;;;;;;;3.97;0.98;;;;;;;;;;4961754;28;20187;-72
2023/07/25 07:24:43;;;;;;;5.25;0.93;;;;;;;;;;4979640;28;20183;-72
2023/07/25 07:27:09;;;;;;;3.40;0.85;;;;;;;;;;4978565;28;20548;-72
2023/07/25 07:29:34;;;;;;;5.65;1.05;;;;;;;;;;4978059;28;20207;-71
2023/07/25 07:32:02;;;;;;;3.08;0.88;;;;;;;;;;4979030;28;20210;-71
2023/07/25 07:34:27;;;;;;;1.45;0.60;;;;;;;;;;4978584;28;20180;-71
2023/07/25 07:36:53;;;;;;;7.18;1.13;;;;;;;;;;4962087;28;20594;-72
2023/07/25 07:39:18;;;;;;;3.63;0.82;;;;;;;;;;4980023;28;20242;-72
2023/07/25 07:41:43;;;;;;;2.60;0.70;;;;;;;;;;4976429;28;20335;-72
2023/07/25 07:44:08;;;;;;;0.95;0.55;;;;;;;;;;4961179;28;20369;-71
2023/07/25 07:46:34;;;;;;;5.18;0.70;;;;;;;;;;4978285;28;20285;-72
2023/07/25 07:48:59;;;;;;;4.50;1.00;;;;;;;;;;4961727;28;20701;-71
2023/07/25 07:51:25;;;;;;;3.17;0.85;;;;;;;;;;4977821;28;20588;-72
2023/07/25 07:53:50;;;;;;;4.03;0.47;;;;;;;;;;4979251;28;20188;-73
2023/07/25 07:56:15;;;;;;;1.13;0.50;;;;;;;;;;4977155;28;20728;-73
2023/07/25 07:58:40;;;;;;;3.03;0.60;;;;;;;;;;4972317;28;20229;-70
2023/07/25 08:01:16;;;;;;;1.35;0.60;;;;;;;;;;4961192;28;20198;-74
2023/07/25 08:03:42;;;;;;;4.30;1.20;;;;;;;;;;4959699;28;20282;-73
2023/07/25 08:06:07;;;;;;;2.00;0.73;;;;;;;;;;4978213;28;20298;-73
2023/07/25 08:08:32;;;;;;;4.55;0.80;;;;;;;;;;4962852;28;20542;-73
2023/07/25 08:10:58;;;;;;;5.35;1.00;;;;;;;;;;4980709;28;20211;-73
2023/07/25 08:13:23;;;;;;;1.65;0.47;;;;;;;;;;4978345;28;20199;-73
2023/07/25 08:15:48;;;;;;;5.10;0.85;;;;;;;;;;4976659;28;20567;-71
2023/07/25 08:18:13;;;;;;;2.83;0.53;;;;;;;;;;4980450;28;20189;-74
2023/07/25 08:20:38;;;;;;;1.48;0.60;;;;;;;;;;4979759;28;20445;-73
2023/07/25 08:23:04;;;;;;;2.50;0.40;;;;;;;;;;4960068;28;20233;-73
2023/07/25 08:25:29;;;;;;;1.98;0.40;;;;;;;;;;4959974;28;20693;-73
2023/07/25 08:27:54;;;;;;;5.00;0.52;;;;;;;;;;4978034;28;20836;-72
2023/07/25 08:30:20;;;;;;;2.47;0.60;;;;;;;;;;4972614;28;20682;-72
2023/07/25 08:32:45;;;;;;;1.48;0.35;;;;;;;;;;4977157;28;20191;-72
2023/07/25 08:35:10;;;;;;;2.35;0.52;;;;;;;;;;4961471;28;20203;-72
2023/07/25 08:37:35;;;;;;;2.30;0.55;;;;;;;;;;4979749;28;20568;-72
2023/07/25 08:40:01;;;;;;;2.65;0.50;;;;;;;;;;4978867;28;20342;-71
2023/07/25 08:42:27;;;;;;;1.75;0.40;;;;;;;;;;4978686;28;20562;-74
2023/07/25 08:44:53;;;;;;;4.22;1.13;;;;;;;;;;4978638;28;20204;-73
2023/07/25 08:47:21;;;;;;;1.90;0.40;;;;;;;;;;4980274;28;20242;-73
2023/07/25 08:49:51;;;;;;;1.98;0.60;;;;;;;;;;4979383;28;20196;-73
2023/07/25 08:52:16;;;;;;;1.50;0.40;;;;;;;;;;4979171;28;20265;-73
2023/07/25 08:54:43;;;;;;;2.78;0.45;;;;;;;;;;4972333;28;20677;-73
2023/07/25 08:57:09;;;;;;;5.28;0.45;;;;;;;;;;4979812;28;20172;-72
2023/07/25 08:59:34;;;;;;;4.22;0.85;;;;;;;;;;4977835;28;20174;-71
2023/07/25 09:02:00;;;;;;;2.05;0.52;;;;;;;;;;4979754;28;20878;-72
2023/07/25 09:04:26;;;;;;;4.43;0.50;;;;;;;;;;4978640;28;20551;-71
2023/07/25 09:06:52;;;;;;;1.15;0.75;;;;;;;;;;4961536;28;20343;-71
2023/07/25 09:09:17;;;;;;;1.55;0.52;;;;;;;;;;4979795;28;20219;-72
2023/07/25 09:11:43;;;;;;;3.47;0.30;;;;;;;;;;4959228;28;20846;-71
2023/07/25 09:14:08;;;;;;;2.55;0.50;;;;;;;;;;4964508;28;20187;-71
2023/07/25 09:16:33;;;;;;;1.70;0.30;;;;;;;;;;4962821;28;20339;-71
2023/07/25 09:18:59;;;;;;;1.27;0.32;;;;;;;;;;4965181;28;20561;-71
2023/07/25 09:21:24;;;;;;;0.98;0.40;;;;;;;;;;4982088;28;20280;-71
2023/07/25 09:23:50;;;;;;;0.70;0.45;;;;;;;;;;4983473;28;20191;-71
2023/07/25 09:26:15;;;;;;;2.45;0.40;;;;;;;;;;4982002;28;21485;-72
2023/07/25 09:28:51;;;;;;;1.50;0.40;;;;;;;;;;4978525;28;20192;-71
2023/07/25 09:31:17;;;;;;;3.85;0.47;;;;;;;;;;4980589;28;20219;-72
2023/07/25 09:33:46;;;;;;;2.28;0.70;;;;;;;;;;4962933;28;20184;-72
2023/07/25 09:36:11;;;;;;;1.92;0.50;;;;;;;;;;4980842;28;20203;-72
2023/07/25 09:38:36;;;;;;;2.67;0.50;;;;;;;;;;4979649;28;20219;-73
2023/07/25 09:41:02;;;;;;;3.38;0.88;;;;;;;;;;4980685;28;20242;-72
2023/07/25 09:43:28;;;;;;;3.33;0.63;;;;;;;;;;4978308;28;20219;-71
2023/07/25 09:45:54;;;;;;;0.40;0.20;;;;;;;;;;4980761;28;20216;-71
2023/07/25 09:48:19;;;;;;;5.47;1.10;;;;;;;;;;4981060;28;20183;-71
2023/07/25 09:50:44;;;;;;;1.50;0.45;;;;;;;;;;4980094;28;20261;-71
2023/07/25 09:53:10;;;;;;;1.33;0.40;;;;;;;;;;4964111;28;20184;-72
2023/07/25 09:55:36;;;;;;;1.50;0.38;;;;;;;;;;4980430;28;20204;-75
2023/07/25 09:58:01;;;;;;;0.68;0.40;;;;;;;;;;4979687;28;20215;-72
2023/07/25 10:00:27;;;;;;;1.52;0.20;;;;;;;;;;4978769;28;20192;-73
2023/07/25 10:02:52;;;;;;;0.70;0.30;;;;;;;;;;4962258;28;20241;-73
2023/07/25 10:05:17;;;;;;;0.52;0.40;;;;;;;;;;4963069;28;20219;-73
2023/07/25 10:07:43;;;;;;;1.15;0.50;;;;;;;;;;4977589;28;20629;-72
2023/07/25 10:10:09;;;;;;;1.55;0.50;;;;;;;;;;4981086;28;20203;-72
2023/07/25 10:12:34;;;;;;;1.88;0.30;;;;;;;;;;4964836;28;20576;-72
2023/07/25 10:15:00;;;;;;;2.30;0.35;;;;;;;;;;4980803;28;20598;-72
2023/07/25 10:17:25;;;;;;;2.35;0.68;;;;;;;;;;4963628;28;20279;-72
2023/07/25 10:19:51;;;;;;;1.75;0.30;;;;;;;;;;4980744;28;20180;-72
2023/07/25 10:22:17;;;;;;;1.05;0.25;;;;;;;;;;4982447;28;20184;-72
2023/07/25 10:24:42;;;;;;;0.28;0.28;;;;;;;;;;4981929;28;20183;-72
2023/07/25 10:27:11;;;;;;;2.97;0.82;;;;;;;;;;4980738;28;20184;-72
2023/07/25 10:29:43;;;;;;;1.15;0.40;;;;;;;;;;4962395;28;20318;-72
2023/07/25 10:32:12;;;;;;;0.60;0.32;;;;;;;;;;4978435;28;20299;-72
2023/07/25 10:34:45;;;;;;;2.65;0.30;;;;;;;;;;4980527;28;20187;-72
2023/07/25 10:37:25;;;;;;;0.65;0.20;;;;;;;;;;4962859;28;20208;-72
2023/07/25 10:40:11;;;;;;;1.13;0.30;;;;;;;;;;4960518;28;20183;-71
2023/07/25 10:42:45;;;;;;;3.47;0.50;;;;;;;;;;4962947;28;20572;-71
2023/07/25 10:45:19;;;;;;;0.50;0.20;;;;;;;;;;4980063;28;20298;-72
2023/07/25 10:47:45;;;;;;;0.43;0.20;;;;;;;;;;4963364;28;20195;-71
2023/07/25 10:50:10;;;;;;;1.55;0.50;;;;;;;;;;4980684;28;20271;-71
2023/07/25 10:52:42;;;;;;;0.22;0.20;;;;;;;;;;4982197;28;20190;-71
2023/07/25 10:55:09;;;;;;;1.35;0.20;;;;;;;;;;4979463;28;20298;-71
2023/07/25 10:57:34;;;;;;;1.80;0.43;;;;;;;;;;4981392;28;20650;-72
2023/07/25 11:00:00;;;;;;;1.50;0.40;;;;;;;;;;4979449;28;20284;-71
2023/07/25 11:02:28;;;;;;;3.83;0.40;;;;;;;;;;4963089;28;20184;-71
2023/07/25 11:05:12;;;;;;;2.50;0.40;;;;;;;;;;4981011;28;20314;-72
2023/07/25 11:07:46;;;;;;;3.33;0.38;;;;;;;;;;4963342;28;20191;-71
2023/07/25 11:10:19;;;;;;;2.13;0.30;;;;;;;;;;4974192;28;20191;-72
2023/07/25 11:12:48;;;;;;;3.97;0.73;;;;;;;;;;4980851;28;20318;-72
2023/07/25 11:15:13;;;;;;;2.40;0.52;;;;;;;;;;4962853;28;20211;-72
2023/07/25 11:17:39;;;;;;;1.92;0.20;;;;;;;;;;4979605;28;20179;-72
2023/07/25 11:20:11;;;;;;;2.50;0.63;;;;;;;;;;4980569;28;20298;-71
2023/07/25 11:22:37;;;;;;;1.33;0.30;;;;;;;;;;4980442;28;20202;-73
2023/07/25 11:25:05;;;;;;;2.08;0.40;;;;;;;;;;4978955;28;20208;-71
2023/07/25 11:27:30;;;;;;;1.95;0.57;;;;;;;;;;4975974;28;20191;-72
2023/07/25 11:30:07;;;;;;;1.02;0.35;;;;;;;;;;4979919;28;20191;-73
2023/07/25 11:32:33;;;;;;;1.35;0.43;;;;;;;;;;4980620;28;20183;-73
2023/07/25 11:35:00;;;;;;;2.45;0.43;;;;;;;;;;4962333;28;20586;-72
2023/07/25 11:37:25;;;;;;;1.52;0.50;;;;;;;;;;4979905;28;20612;-71
2023/07/25 11:39:50;;;;;;;0.60;0.20;;;;;;;;;;4980178;28;20191;-71
2023/07/25 11:42:15;;;;;;;2.83;0.50;;;;;;;;;;4979656;28;20597;-72
2023/07/25 11:44:41;;;;;;;3.60;0.38;;;;;;;;;;4978238;28;21218;-71
2023/07/25 11:47:06;;;;;;;0.90;0.30;;;;;;;;;;4961770;28;20183;-71
2023/07/25 11:49:32;;;;;;;1.95;0.45;;;;;;;;;;4978919;28;20529;-73
2023/07/25 11:51:58;;;;;;;2.00;0.38;;;;;;;;;;4980196;28;20235;-72
2023/07/25 11:54:23;;;;;;;1.17;0.40;;;;;;;;;;4979980;28;20642;-72
2023/07/25 11:56:49;;;;;;;2.05;0.38;;;;;;;;;;4961930;28;20203;-72
2023/07/25 11:59:14;;;;;;;2.25;0.40;;;;;;;;;;4979962;28;20194;-73
2023/07/25 12:01:39;;;;;;;2.13;0.20;;;;;;;;;;4979993;28;21056;-72
2023/07/25 12:04:12;;;;;;;0.85;0.50;;;;;;;;;;4965728;28;20830;-72
2023/07/25 12:06:37;;;;;;;0.90;0.40;;;;;;;;;;4989322;23;20245;-67
2023/07/25 12:09:02;;;;;;;2.75;0.60;;;;;;;;;;4978599;28;20179;-68
2023/07/25 12:11:28;;;;;;;2.92;0.60;;;;;;;;;;4977868;28;21057;-68
2023/07/25 12:13:56;;;;;;;2.58;0.40;;;;;;;;;;4978793;28;20580;-67
2023/07/25 12:16:35;;;;;;;1.50;0.20;;;;;;;;;;4975842;28;20207;-66
2023/07/25 12:19:03;;;;;;;2.45;0.30;;;;;;;;;;4977397;28;20187;-66
2023/07/25 12:21:29;;;;;;;3.78;0.60;;;;;;;;;;4977627;28;20956;-67
2023/07/25 12:23:56;;;;;;;0.75;0.20;;;;;;;;;;4958452;28;20198;-66
2023/07/25 12:26:21;;;;;;;3.63;0.50;;;;;;;;;;4976130;28;20694;-67
2023/07/25 12:28:47;;;;;;;0.60;0.30;;;;;;;;;;4961341;28;20192;-67
2023/07/25 12:31:13;;;;;;;1.35;0.25;;;;;;;;;;4978450;28;20207;-68
2023/07/25 12:33:38;;;;;;;1.63;0.52;;;;;;;;;;4978582;28;20430;-68
2023/07/25 12:36:04;;;;;;;1.15;0.30;;;;;;;;;;4979558;28;20212;-67
2023/07/25 12:38:29;;;;;;;2.28;0.40;;;;;;;;;;4979539;28;20194;-67
2023/07/25 12:40:54;;;;;;;1.40;0.30;;;;;;;;;;4975916;28;20183;-67
2023/07/25 12:43:20;;;;;;;2.75;0.38;;;;;;;;;;4979060;28;20184;-67
2023/07/25 12:45:45;;;;;;;1.52;0.30;;;;;;;;;;4981337;28;20237;-67
2023/07/25 12:48:10;;;;;;;0.70;0.40;;;;;;;;;;4980820;28;20191;-67
2023/07/25 12:50:36;;;;;;;0.60;0.30;;;;;;;;;;4981324;28;20559;-67
2023/07/25 12:53:01;;;;;;;0.30;0.20;;;;;;;;;;4980881;28;20271;-68
2023/07/25 12:55:26;;;;;;;0.50;0.25;;;;;;;;;;4980697;28;20335;-68
2023/07/25 12:57:52;;;;;;;0.80;0.30;;;;;;;;;;4980185;28;20191;-67
2023/07/25 13:00:17;;;;;;;1.58;0.55;;;;;;;;;;4961137;28;20242;-67
2023/07/25 13:02:43;;;;;;;0.40;0.40;;;;;;;;;;4975461;28;21348;-66
2023/07/25 13:05:09;;;;;;;1.83;0.52;;;;;;;;;;4962894;28;20302;-67
2023/07/25 13:07:35;;;;;;;1.48;0.40;;;;;;;;;;4980856;28;20611;-68
2023/07/25 13:10:00;;;;;;;0.32;0.20;;;;;;;;;;4972099;28;20202;-68
2023/07/25 13:12:25;;;;;;;1.40;0.20;;;;;;;;;;4978967;28;20217;-67
2023/07/25 13:14:50;;;;;;;1.40;0.20;;;;;;;;;;4981201;28;20197;-67
2023/07/25 13:17:15;;;;;;;0.82;0.20;;;;;;;;;;4980863;28;20642;-67
2023/07/25 13:19:41;;;;;;;0.30;0.13;;;;;;;;;;4980813;28;20180;-67
2023/07/25 13:22:06;;;;;;;0.43;0.10;;;;;;;;;;4962676;28;20202;-68
2023/07/25 13:24:31;;;;;;;0.70;0.30;;;;;;;;;;4976892;28;20183;-69
2023/07/25 13:26:56;;;;;;;0.73;0.20;;;;;;;;;;4975585;28;20207;-68
2023/07/25 13:29:22;;;;;;;0.67;0.20;;;;;;;;;;4981318;28;20191;-68
2023/07/25 13:31:47;;;;;;;0.73;0.28;;;;;;;;;;4980387;28;20575;-69
2023/07/25 13:34:12;;;;;;;0.75;0.25;;;;;;;;;;4980711;28;20192;-67
2023/07/25 13:36:38;;;;;;;0.30;0.20;;;;;;;;;;4960876;28;20207;-68
2023/07/25 13:39:03;;;;;;;0.82;0.43;;;;;;;;;;4980333;28;20179;-68
2023/07/25 13:41:28;;;;;;;0.52;0.40;;;;;;;;;;4979103;28;20225;-68
2023/07/25 13:43:53;;;;;;;1.25;0.30;;;;;;;;;;4975887;28;20189;-68
2023/07/25 13:46:19;;;;;;;1.55;0.75;;;;;;;;;;4979607;28;20782;-67
2023/07/25 13:48:47;;;;;;;2.97;0.32;;;;;;;;;;4980952;28;20180;-67
2023/07/25 13:51:12;;;;;;;1.63;0.40;;;;;;;;;;4979678;28;20277;-67
2023/07/25 13:53:37;;;;;;;3.15;0.47;;;;;;;;;;4978710;28;20180;-67
2023/07/25 13:56:03;;;;;;;4.60;0.60;;;;;;;;;;4978616;28;20517;-67
2023/07/25 13:58:28;;;;;;;2.25;0.40;;;;;;;;;;4979156;28;20483;-68
2023/07/25 14:00:54;;;;;;;1.17;0.30;;;;;;;;;;4979874;28;20808;-68
2023/07/25 14:03:19;;;;;;;2.83;0.40;;;;;;;;;;4979522;28;20184;-68
2023/07/25 14:05:44;;;;;;;1.13;0.32;;;;;;;;;;4979774;28;20289;-68
2023/07/25 14:08:09;;;;;;;1.00;0.40;;;;;;;;;;4978437;28;20184;-68
2023/07/25 14:10:35;;;;;;;1.58;0.40;;;;;;;;;;4978538;28;21025;-68
2023/07/25 14:13:00;;;;;;;1.25;0.25;;;;;;;;;;4960933;28;20191;-68
2023/07/25 14:15:26;;;;;;;2.50;0.38;;;;;;;;;;4979453;28;20203;-68
2023/07/25 14:17:51;;;;;;;3.38;0.35;;;;;;;;;;4962409;28;20238;-68
2023/07/25 14:20:16;;;;;;;1.27;0.60;;;;;;;;;;4961177;28;20208;-68
2023/07/25 14:22:41;;;;;;;1.02;0.30;;;;;;;;;;4974054;28;20184;-68
2023/07/25 14:25:07;;;;;;;2.08;0.30;;;;;;;;;;4977572;28;20935;-68
2023/07/25 14:27:32;;;;;;;1.38;0.43;;;;;;;;;;4978309;28;20194;-68
2023/07/25 14:29:57;;;;;;;2.42;0.45;;;;;;;;;;4978276;28;20223;-67
2023/07/25 14:32:23;;;;;;;0.82;0.35;;;;;;;;;;4978848;28;20774;-67
2023/07/25 14:34:49;;;;;;;1.42;0.57;;;;;;;;;;4978941;28;20684;-67